Terminal Aerodrome Forecast
Issued by NWS Pocatello, ID

Current Version | Previous Version | Text Only | Print | Product List | Glossary On
Versions: 1 2 3 4 5 6 7 8 9 10 11 12 13 14 15 16 17 18 19 20 21
000
FTUS45 KPIH 240710 AAA
TAFBYI
TAF AMD
KBYI 240710Z 2407/2506 VRB05KT 5SM BR FEW080
      TEMPO 2407/2411 2SM BR BKN002
     FM241100 VRB06KT P6SM OVC070
     FM241700 28009KT P6SM VCTS OVC080CB
     FM250400 VRB06KT P6SM VCSH OVC070=

USA.gov is the U.S. government's official web portal to all federal, state and local government web resources and services.